Wetterdaten: Woche 07.08.06 - 13.08.06 (KW32)
Datum Zeit Temperatur Luftfeuchte Luftdruck Niederschlag Windrichtung Wind
07.08.2006 00:00 14,1 C 100 % 1017 hPa 1,0 l/m W-SW 10,8 km/h (2 Bft)
07.08.2006 01:00 14,1 C 100 % 1017 hPa 2,0 l/m W 15,3 km/h (3 Bft)
07.08.2006 02:00 14,1 C 100 % 1017 hPa 0,0 l/m W-SW 12,5 km/h (3 Bft)
07.08.2006 03:00 14,0 C 100 % 1016 hPa 1,0 l/m W-SW 10,6 km/h (2 Bft)
07.08.2006 04:00 14,0 C 100 % 1016 hPa 0,0 l/m S-SW 4,9 km/h (1 Bft)
07.08.2006 05:00 13,9 C 100 % 1016 hPa 0,0 l/m S-SW 2,4 km/h (1 Bft)
07.08.2006 06:00 13,8 C 100 % 1016 hPa 0,0 l/m W-SW 5,3 km/h (1 Bft)
07.08.2006 07:00 14,0 C 100 % 1016 hPa 0,0 l/m W-SW 8,8 km/h (2 Bft)
07.08.2006 08:00 14,3 C 100 % 1016 hPa 0,0 l/m S-SW 1,2 km/h (1 Bft)
07.08.2006 09:00 14,8 C 100 % 1016 hPa 0,0 l/m N 0,4 km/h (0 Bft)
07.08.2006 10:00 15,5 C 100 % 1017 hPa 0,0 l/m W 3,0 km/h (1 Bft)
07.08.2006 11:00 16,3 C 98 % 1016 hPa 0,0 l/m W-SW 7,8 km/h (2 Bft)
07.08.2006 12:00 17,3 C 90 % 1016 hPa 0,0 l/m W 9,3 km/h (2 Bft)
07.08.2006 13:00 18,7 C 85 % 1016 hPa 0,0 l/m S 18,9 km/h (3 Bft)
07.08.2006 14:00 19,8 C 79 % 1016 hPa 0,0 l/m S-SW 17,9 km/h (3 Bft)
07.08.2006 15:00 19,4 C 82 % 1016 hPa 0,0 l/m S 19,7 km/h (3 Bft)
07.08.2006 16:00 20,3 C 77 % 1015 hPa 0,0 l/m S 22,3 km/h (4 Bft)
07.08.2006 17:00 19,7 C 78 % 1015 hPa 0,0 l/m S-SW 17,3 km/h (3 Bft)
07.08.2006 18:00 18,9 C 85 % 1015 hPa 0,0 l/m S 14,3 km/h (3 Bft)
07.08.2006 19:00 18,4 C 87 % 1015 hPa 0,0 l/m S-SW 7,7 km/h (2 Bft)
07.08.2006 20:00 17,6 C 91 % 1015 hPa 0,0 l/m S 2,4 km/h (1 Bft)
07.08.2006 21:00 16,3 C 94 % 1016 hPa 0,0 l/m N 0,0 km/h (0 Bft)
07.08.2006 22:00 15,0 C 97 % 1016 hPa 0,0 l/m N 0,0 km/h (0 Bft)
07.08.2006 23:00 14,4 C 100 % 1016 hPa 0,0 l/m N 0,0 km/h (0 Bft)
08.08.2006 00:00 14,0 C 100 % 1016 hPa 0,0 l/m N 0,0 km/h (0 Bft)
08.08.2006 01:00 13,5 C 100 % 1015 hPa 0,0 l/m N 0,0 km/h (0 Bft)
08.08.2006 02:00 12,8 C 100 % 1015 hPa 0,0 l/m N 0,0 km/h (0 Bft)
08.08.2006 03:00 12,4 C 100 % 1015 hPa 0,0 l/m N 0,0 km/h (0 Bft)
08.08.2006 04:00 11,7 C 100 % 1015 hPa 0,0 l/m N 0,0 km/h (0 Bft)
08.08.2006 05:00 11,0 C 100 % 1014 hPa 0,0 l/m N 0,0 km/h (0 Bft)
08.08.2006 06:00 10,9 C 100 % 1014 hPa 0,0 l/m N 0,0 km/h (0 Bft)
08.08.2006 07:00 11,3 C 100 % 1015 hPa 0,0 l/m S-SW 0,5 km/h (0 Bft)
08.08.2006 08:00 12,4 C 100 % 1015 hPa 0,0 l/m N 0,0 km/h (0 Bft)
08.08.2006 09:00 14,6 C 99 % 1015 hPa 0,0 l/m S 4,2 km/h (1 Bft)
08.08.2006 10:00 17,9 C 81 % 1015 hPa 0,0 l/m O 7,2 km/h (2 Bft)
08.08.2006 11:00 20,6 C 65 % 1014 hPa 0,0 l/m N 11,1 km/h (2 Bft)
08.08.2006 12:00 21,2 C 57 % 1014 hPa 0,0 l/m NW 13,4 km/h (3 Bft)
08.08.2006 13:00 21,4 C 58 % 1014 hPa 0,0 l/m N 13,2 km/h (3 Bft)
08.08.2006 14:00 22,1 C 53 % 1013 hPa 0,0 l/m N 12,9 km/h (3 Bft)
08.08.2006 15:00 21,5 C 56 % 1013 hPa 0,0 l/m N 18,0 km/h (3 Bft)
08.08.2006 16:00 19,5 C 68 % 1014 hPa 0,0 l/m N-NW 26,6 km/h (4 Bft)
08.08.2006 17:00 18,6 C 73 % 1014 hPa 0,0 l/m NW 16,6 km/h (3 Bft)
08.08.2006 18:00 18,3 C 75 % 1014 hPa 0,0 l/m N 13,5 km/h (3 Bft)
08.08.2006 19:00 17,4 C 79 % 1014 hPa 0,0 l/m NW 15,4 km/h (3 Bft)
08.08.2006 20:00 16,4 C 87 % 1015 hPa 0,0 l/m N 9,6 km/h (2 Bft)
08.08.2006 21:00 16,0 C 88 % 1015 hPa 0,0 l/m N-NW 8,4 km/h (2 Bft)
08.08.2006 22:00 15,5 C 88 % 1015 hPa 0,0 l/m N-NO 8,8 km/h (2 Bft)
08.08.2006 23:00 15,0 C 92 % 1015 hPa 0,0 l/m N 0,0 km/h (0 Bft)
09.08.2006 00:00 14,8 C 97 % 1015 hPa 0,0 l/m N 0,0 km/h (0 Bft)
09.08.2006 01:00 14,7 C 98 % 1015 hPa 0,0 l/m NW 1,2 km/h (1 Bft)
09.08.2006 02:00 14,5 C 96 % 1015 hPa 0,0 l/m N-NW 2,5 km/h (1 Bft)
09.08.2006 03:00 14,1 C 94 % 1014 hPa 0,0 l/m N-NW 4,9 km/h (1 Bft)
09.08.2006 04:00 13,8 C 94 % 1014 hPa 0,0 l/m NW 1,4 km/h (1 Bft)
09.08.2006 05:00 13,1 C 95 % 1014 hPa 0,0 l/m N 0,0 km/h (0 Bft)
09.08.2006 06:00 12,8 C 97 % 1014 hPa 0,0 l/m W 1,1 km/h (1 Bft)
09.08.2006 07:00 13,0 C 94 % 1014 hPa 0,0 l/m N 2,6 km/h (1 Bft)
09.08.2006 08:00 13,5 C 88 % 1014 hPa 0,0 l/m N 6,0 km/h (2 Bft)
09.08.2006 09:00 14,5 C 83 % 1015 hPa 0,0 l/m N-NO 9,3 km/h (2 Bft)
09.08.2006 10:00 16,3 C 70 % 1015 hPa 0,0 l/m O-NO 4,3 km/h (1 Bft)
09.08.2006 11:00 18,1 C 56 % 1015 hPa 0,0 l/m N 7,9 km/h (2 Bft)
09.08.2006 12:00 18,2 C 52 % 1014 hPa 0,0 l/m N-NW 10,8 km/h (2 Bft)
09.08.2006 13:00 18,5 C 52 % 1014 hPa 0,0 l/m N 6,9 km/h (2 Bft)
09.08.2006 14:00 19,3 C 48 % 1014 hPa 0,0 l/m O 8,9 km/h (2 Bft)
09.08.2006 15:00 20,0 C 46 % 1014 hPa 0,0 l/m NW 11,6 km/h (2 Bft)
09.08.2006 16:00 19,7 C 46 % 1014 hPa 0,0 l/m N 10,0 km/h (2 Bft)
09.08.2006 17:00 19,8 C 45 % 1013 hPa 0,0 l/m W 6,7 km/h (2 Bft)
09.08.2006 18:00 19,6 C 48 % 1013 hPa 0,0 l/m N 0,7 km/h (0 Bft)
09.08.2006 19:00 18,5 C 57 % 1013 hPa 0,0 l/m N 0,0 km/h (0 Bft)
09.08.2006 20:00 17,0 C 67 % 1014 hPa 0,0 l/m W-NW 0,5 km/h (0 Bft)
09.08.2006 21:00 15,7 C 71 % 1014 hPa 0,0 l/m W-NW 1,5 km/h (1 Bft)
09.08.2006 22:00 14,2 C 74 % 1014 hPa 0,0 l/m N 0,0 km/h (0 Bft)
09.08.2006 23:00 13,2 C 80 % 1014 hPa 0,0 l/m N 0,0 km/h (0 Bft)
10.08.2006 00:00 11,9 C 86 % 1014 hPa 0,0 l/m N 0,0 km/h (0 Bft)
10.08.2006 01:00 11,8 C 90 % 1014 hPa 0,0 l/m N 0,0 km/h (0 Bft)
10.08.2006 02:00 12,3 C 91 % 1014 hPa 0,0 l/m N 0,0 km/h (0 Bft)
10.08.2006 03:00 12,1 C 93 % 1013 hPa 0,0 l/m N 0,0 km/h (0 Bft)
10.08.2006 04:00 12,0 C 97 % 1013 hPa 0,0 l/m N 0,0 km/h (0 Bft)
10.08.2006 05:00 12,2 C 98 % 1013 hPa 0,0 l/m N 0,0 km/h (0 Bft)
10.08.2006 06:00 12,4 C 98 % 1013 hPa 0,0 l/m S 1,3 km/h (1 Bft)
10.08.2006 07:00 12,8 C 99 % 1013 hPa 0,0 l/m N 0,3 km/h (0 Bft)
10.08.2006 08:00 13,5 C 98 % 1012 hPa 0,0 l/m S-SO 4,7 km/h (1 Bft)
10.08.2006 09:00 14,4 C 94 % 1013 hPa 0,0 l/m S-SW 9,2 km/h (2 Bft)
10.08.2006 10:00 14,6 C 88 % 1013 hPa 0,0 l/m W-SW 10,6 km/h (2 Bft)
10.08.2006 11:00 14,5 C 88 % 1013 hPa 0,0 l/m W-SW 9,1 km/h (2 Bft)
10.08.2006 12:00 15,2 C 87 % 1013 hPa 0,0 l/m S-SW 18,1 km/h (3 Bft)
10.08.2006 13:00 17,6 C 76 % 1012 hPa 0,0 l/m S 22,9 km/h (4 Bft)
10.08.2006 14:00 16,7 C 75 % 1013 hPa 2,0 l/m W 23,8 km/h (4 Bft)
10.08.2006 15:00 13,5 C 98 % 1013 hPa 1,0 l/m NW 17,2 km/h (3 Bft)
10.08.2006 16:00 13,9 C 87 % 1014 hPa 0,0 l/m NW 14,7 km/h (3 Bft)
10.08.2006 17:00 15,3 C 62 % 1013 hPa 0,0 l/m W 11,6 km/h (2 Bft)
10.08.2006 18:00 16,3 C 57 % 1014 hPa 0,0 l/m W-SW 6,7 km/h (2 Bft)
10.08.2006 19:00 15,1 C 70 % 1014 hPa 0,0 l/m S 0,7 km/h (0 Bft)
10.08.2006 20:00 13,9 C 84 % 1014 hPa 1,0 l/m S-SW 6,6 km/h (2 Bft)
10.08.2006 21:00 12,9 C 93 % 1015 hPa 0,0 l/m N-NW 2,1 km/h (1 Bft)
10.08.2006 22:00 12,2 C 97 % 1015 hPa 1,0 l/m N 0,0 km/h (0 Bft)
10.08.2006 23:00 11,7 C 99 % 1015 hPa 0,0 l/m S 0,6 km/h (0 Bft)
11.08.2006 00:00 11,1 C 99 % 1015 hPa 0,0 l/m S 1,1 km/h (1 Bft)
11.08.2006 01:00 10,8 C 100 % 1014 hPa 0,0 l/m N 0,0 km/h (0 Bft)
11.08.2006 02:00 10,5 C 100 % 1014 hPa 0,0 l/m N 0,0 km/h (0 Bft)
11.08.2006 03:00 10,5 C 100 % 1014 hPa 0,0 l/m N 0,0 km/h (0 Bft)
11.08.2006 04:00 10,4 C 100 % 1013 hPa 0,0 l/m N 0,0 km/h (0 Bft)
11.08.2006 05:00 9,9 C 100 % 1013 hPa 0,0 l/m N 0,0 km/h (0 Bft)
11.08.2006 06:00 9,7 C 100 % 1013 hPa 0,0 l/m N 0,0 km/h (0 Bft)
11.08.2006 07:00 10,3 C 100 % 1013 hPa 0,0 l/m S-SO 0,4 km/h (0 Bft)
11.08.2006 08:00 11,4 C 100 % 1012 hPa 0,0 l/m S-SW 8,5 km/h (2 Bft)
11.08.2006 09:00 12,6 C 99 % 1012 hPa 0,0 l/m W-SW 10,4 km/h (2 Bft)
11.08.2006 10:00 14,3 C 81 % 1012 hPa 0,0 l/m W-SW 17,1 km/h (3 Bft)
11.08.2006 11:00 15,5 C 69 % 1011 hPa 0,0 l/m S-SW 22,1 km/h (4 Bft)
11.08.2006 12:00 15,9 C 63 % 1011 hPa 0,0 l/m W-SW 21,6 km/h (4 Bft)
11.08.2006 13:00 15,7 C 65 % 1011 hPa 0,0 l/m W-SW 20,8 km/h (4 Bft)
11.08.2006 14:00 15,3 C 68 % 1011 hPa 0,0 l/m W-SW 19,1 km/h (3 Bft)
11.08.2006 15:00 15,2 C 72 % 1011 hPa 0,0 l/m SW 17,1 km/h (3 Bft)
11.08.2006 16:00 14,2 C 85 % 1011 hPa 0,0 l/m S-SW 16,8 km/h (3 Bft)
11.08.2006 17:00 12,8 C 93 % 1011 hPa 1,0 l/m S-SW 18,8 km/h (3 Bft)
11.08.2006 18:00 12,3 C 99 % 1010 hPa 0,0 l/m S-SW 16,3 km/h (3 Bft)
11.08.2006 19:00 11,9 C 100 % 1010 hPa 0,0 l/m S 14,0 km/h (3 Bft)
11.08.2006 20:00 11,5 C 100 % 1010 hPa 0,0 l/m S 15,7 km/h (3 Bft)
11.08.2006 21:00 11,3 C 100 % 1011 hPa 0,0 l/m W-SW 11,4 km/h (2 Bft)
11.08.2006 22:00 11,0 C 100 % 1011 hPa 0,0 l/m S 10,6 km/h (2 Bft)
11.08.2006 23:00 10,6 C 100 % 1011 hPa 1,0 l/m S 11,8 km/h (2 Bft)
12.08.2006 00:00 10,2 C 100 % 1010 hPa 0,0 l/m S-SW 9,2 km/h (2 Bft)
12.08.2006 01:00 10,2 C 100 % 1010 hPa 0,0 l/m S-SW 8,6 km/h (2 Bft)
12.08.2006 02:00 10,2 C 100 % 1010 hPa 1,0 l/m S-SW 11,7 km/h (2 Bft)
12.08.2006 03:00 9,9 C 100 % 1009 hPa 0,0 l/m S 11,5 km/h (2 Bft)
12.08.2006 04:00 9,5 C 100 % 1009 hPa 0,0 l/m S 5,1 km/h (1 Bft)
12.08.2006 05:00 9,0 C 100 % 1009 hPa 0,0 l/m W-SW 1,3 km/h (1 Bft)
12.08.2006 06:00 9,0 C 100 % 1009 hPa 0,0 l/m W 11,0 km/h (2 Bft)
12.08.2006 07:00 9,3 C 100 % 1009 hPa 0,0 l/m W-SW 5,2 km/h (1 Bft)
12.08.2006 08:00 10,1 C 100 % 1009 hPa 0,0 l/m S-SW 8,1 km/h (2 Bft)
12.08.2006 09:00 10,9 C 98 % 1009 hPa 0,0 l/m W-SW 10,7 km/h (2 Bft)
12.08.2006 10:00 11,6 C 91 % 1009 hPa 0,0 l/m W-SW 10,9 km/h (2 Bft)
12.08.2006 11:00 12,7 C 81 % 1009 hPa 0,0 l/m S 8,8 km/h (2 Bft)
12.08.2006 12:00 14,1 C 78 % 1008 hPa 1,0 l/m S 16,4 km/h (3 Bft)
12.08.2006 13:00 12,6 C 80 % 1008 hPa 0,0 l/m W-SW 11,0 km/h (2 Bft)
12.08.2006 14:00 14,4 C 72 % 1008 hPa 0,0 l/m S 17,4 km/h (3 Bft)
12.08.2006 15:00 14,0 C 80 % 1008 hPa 0,0 l/m S 18,5 km/h (3 Bft)
12.08.2006 16:00 14,5 C 70 % 1008 hPa 0,0 l/m S-SW 13,7 km/h (3 Bft)
12.08.2006 17:00 14,9 C 65 % 1008 hPa 0,0 l/m N-NO 16,2 km/h (3 Bft)
12.08.2006 18:00 14,6 C 66 % 1008 hPa 0,0 l/m O 8,2 km/h (2 Bft)
12.08.2006 19:00 12,8 C 78 % 1008 hPa 0,0 l/m O 0,7 km/h (0 Bft)
12.08.2006 20:00 11,3 C 88 % 1008 hPa 0,0 l/m N 0,0 km/h (0 Bft)
12.08.2006 21:00 10,2 C 93 % 1008 hPa 0,0 l/m N 0,0 km/h (0 Bft)
12.08.2006 22:00 9,5 C 96 % 1008 hPa 0,0 l/m N 0,0 km/h (0 Bft)
12.08.2006 23:00 9,0 C 98 % 1008 hPa 0,0 l/m N 0,0 km/h (0 Bft)
13.08.2006 00:00 8,5 C 100 % 1008 hPa 0,0 l/m N 0,0 km/h (0 Bft)
13.08.2006 01:00 8,2 C 100 % 1008 hPa 0,0 l/m S 2,3 km/h (1 Bft)
13.08.2006 02:00 9,4 C 100 % 1008 hPa 0,0 l/m W-SW 8,6 km/h (2 Bft)
13.08.2006 03:00 9,7 C 99 % 1007 hPa 0,0 l/m S 4,9 km/h (1 Bft)
13.08.2006 04:00 9,8 C 98 % 1008 hPa 0,0 l/m S-SW 11,7 km/h (2 Bft)
13.08.2006 05:00 9,4 C 98 % 1008 hPa 0,0 l/m S 11,0 km/h (2 Bft)
13.08.2006 06:00 9,1 C 100 % 1007 hPa 0,0 l/m S 11,9 km/h (2 Bft)
13.08.2006 07:00 9,4 C 100 % 1007 hPa 0,0 l/m S 12,5 km/h (3 Bft)
13.08.2006 08:00 10,3 C 100 % 1007 hPa 1,0 l/m S 12,3 km/h (3 Bft)
13.08.2006 09:00 11,1 C 96 % 1007 hPa 0,0 l/m S-SW 20,2 km/h (4 Bft)
13.08.2006 10:00 11,6 C 95 % 1007 hPa 0,0 l/m S-SW 17,5 km/h (3 Bft)
13.08.2006 11:00 11,3 C 93 % 1007 hPa 0,0 l/m S-SW 18,3 km/h (3 Bft)
13.08.2006 12:00 11,1 C 98 % 1007 hPa 1,0 l/m S-SW 18,0 km/h (3 Bft)
13.08.2006 13:00 11,5 C 93 % 1007 hPa 0,0 l/m S-SW 23,0 km/h (4 Bft)
13.08.2006 14:00 11,5 C 98 % 1007 hPa 1,0 l/m S-SW 25,5 km/h (4 Bft)
13.08.2006 15:00 11,5 C 100 % 1007 hPa 1,0 l/m S-SW 23,4 km/h (4 Bft)
13.08.2006 16:00 11,4 C 100 % 1007 hPa 0,0 l/m S-SW 23,2 km/h (4 Bft)
13.08.2006 17:00 11,5 C 100 % 1007 hPa 1,0 l/m S-SW 21,6 km/h (4 Bft)
13.08.2006 18:00 11,7 C 100 % 1008 hPa 0,0 l/m S-SW 23,7 km/h (4 Bft)
13.08.2006 19:00 11,8 C 100 % 1008 hPa 0,0 l/m S-SW 19,8 km/h (4 Bft)
13.08.2006 20:00 11,5 C 100 % 1009 hPa 0,0 l/m S-SW 19,2 km/h (3 Bft)
13.08.2006 21:00 11,3 C 98 % 1009 hPa 0,0 l/m W-SW 18,1 km/h (3 Bft)
13.08.2006 22:00 11,0 C 97 % 1009 hPa 0,0 l/m SW 17,2 km/h (3 Bft)
13.08.2006 23:00 10,9 C 98 % 1010 hPa 0,0 l/m S-SW 12,7 km/h (3 Bft)
Min-Datum _ 13.08.06 09.08.06 12.08.06 - - 07.08.06
_ Min-Zeit 01:28 17:38 15:04 - - 00:11
Minimum _ 8,1 C 43 % 1007 hPa - - 0,0 km/h (0 Bft)
Max-Datum _ 08.08.06 07.08.06 07.08.06 07.08.06 - 11.08.06
_ Max-Zeit 14:41 00:00 00:00 01:03 - 12:46
Maximum _ 22,4 C 100 % 1017 hPa 2,0 l/m - 48,4 km/h
W-SW (6 Bft)
Durchschnitt _ 13,8 C 88 % 1013 hPa #18,0 l/m S-SW 8,8 km/h (2 Bft)

Durchschnitt Minimum Temp.13,4 C
Durchschnitt Maximum Temp.14,2 C